Map

Track Data

SID SEASON NUMBER BASIN SUBBASIN NAME ISO_TIME NATURE LAT LON WMO_WIND WMO_PRES WMO_AGENCY TRACK_TYPE DIST2LAND LANDFALL IFLAG USA_AGENCY USA_ATCF_ID USA_LAT USA_LON USA_RECORD USA_STATUS USA_WIND USA_PRES USA_SSHS USA_R34_NE USA_R34_SE USA_R34_SW USA_R34_NW USA_R50_NE USA_R50_SE USA_R50_SW USA_R50_NW USA_R64_NE USA_R64_SE USA_R64_SW USA_R64_NW USA_POCI USA_ROCI USA_RMW USA_EYE TOKYO_LAT TOKYO_LON TOKYO_GRADE TOKYO_WIND TOKYO_PRES TOKYO_R50_DIR TOKYO_R50_LONG TOKYO_R50_SHORT TOKYO_R30_DIR TOKYO_R30_LONG TOKYO_R30_SHORT TOKYO_LAND CMA_LAT CMA_LON CMA_CAT CMA_WIND CMA_PRES HKO_LAT HKO_LON HKO_CAT HKO_WIND HKO_PRES NEWDELHI_LAT NEWDELHI_LON NEWDELHI_GRADE NEWDELHI_WIND NEWDELHI_PRES NEWDELHI_CI NEWDELHI_DP NEWDELHI_POCI REUNION_LAT REUNION_LON REUNION_TYPE REUNION_WIND REUNION_PRES REUNION_TNUM REUNION_CI REUNION_RMW REUNION_R34_NE REUNION_R34_SE REUNION_R34_SW REUNION_R34_NW REUNION_R50_NE REUNION_R50_SE REUNION_R50_SW REUNION_R50_NW REUNION_R64_NE REUNION_R64_SE REUNION_R64_SW REUNION_R64_NW BOM_LAT BOM_LON BOM_TYPE BOM_WIND BOM_PRES BOM_TNUM BOM_CI BOM_RMW BOM_R34_NE BOM_R34_SE BOM_R34_SW BOM_R34_NW BOM_R50_NE BOM_R50_SE BOM_R50_SW BOM_R50_NW BOM_R64_NE BOM_R64_SE BOM_R64_SW BOM_R64_NW BOM_ROCI BOM_POCI BOM_EYE BOM_POS_METHOD BOM_PRES_METHOD NADI_LAT NADI_LON NADI_CAT NADI_WIND NADI_PRES WELLINGTON_LAT WELLINGTON_LON WELLINGTON_WIND WELLINGTON_PRES DS824_LAT DS824_LON DS824_STAGE DS824_WIND DS824_PRES TD9636_LAT TD9636_LON TD9636_STAGE TD9636_WIND TD9636_PRES TD9635_LAT TD9635_LON TD9635_WIND TD9635_PRES TD9635_ROCI NEUMANN_LAT NEUMANN_LON NEUMANN_CLASS NEUMANN_WIND NEUMANN_PRES MLC_LAT MLC_LON MLC_CLASS MLC_WIND MLC_PRES USA_GUST BOM_GUST BOM_GUST_PER REUNION_GUST REUNION_GUST_PER USA_SEAHGT USA_SEARAD_NE USA_SEARAD_SE USA_SEARAD_SW USA_SEARAD_NW STORM_SPEED STORM_DIR
1985004N04131 1985 1 WP MM NOT_NAMED 1985-01-04 00:00:00 NR 4.10000 131.000 spur-merge 312 309 __________O___ -1 4.10000 131.000 0 9 340
1985004N04131 1985 1 WP MM NOT_NAMED 1985-01-04 03:00:00 NR 4.52976 130.842 spur-merge 323 323 __________P___ -1 4.52976 130.842 0 9 341
1985004N04131 1985 1 WP MM NOT_NAMED 1985-01-04 06:00:00 NR 4.95760 130.698 spur-merge 357 357 __________P___ -1 4.95760 130.698 0 9 343
1985004N04131 1985 1 WP MM NOT_NAMED 1985-01-04 09:00:00 NR 5.38163 130.579 spur-merge 387 387 __________P___ -1 5.38163 130.579 0 9 347
1985004N04131 1985 1 WP MM NOT_NAMED 1985-01-04 12:00:00 NR 5.80000 130.500 spur-merge 420 420 __________O___ -1 5.80000 130.500 0 8 352
1985004N04131 1985 1 WP MM NOT_NAMED 1985-01-04 15:00:00 NR 6.20806 130.470 spur-merge 448 437 __________P___ -1 6.20806 130.470 0 8 358
1985004N04131 1985 1 WP MM NOT_NAMED 1985-01-04 18:00:00 NR 6.58992 130.482 spur-merge 437 433 __________P___ -1 6.58992 130.482 0 7 4
1985004N04131 1985 1 WP MM NOT_NAMED 1985-01-04 21:00:00 NR 6.92683 130.529 spur-merge 433 432 __________P___ -1 6.92683 130.529 0 6 11
1985004N04131 1985 1 WP MM NOT_NAMED 1985-01-05 00:00:00 NR 7.20000 130.600 spur-merge 441 441 __________O___ -1 7.20000 130.600 0 5 17
1985004N04131 1985 1 WP MM NOT_NAMED 1985-01-05 03:00:00 NR 7.36935 130.666 spur-merge 452 452 __________P___ -1 7.36935 130.666 0 3 29
1985004N04131 1985 1 WP MM NOT_NAMED 1985-01-05 06:00:00 NR 7.47996 130.755 spur-merge 463 463 __________P___ -1 7.47996 130.755 0 3 44
1985004N04131 1985 1 WP MM NOT_NAMED 1985-01-05 09:00:00 NR 7.57559 130.866 spur-merge 474 474 __________P___ -1 7.57559 130.866 0 3 48
1985004N04131 1985 1 WP MM NOT_NAMED 1985-01-05 12:00:00 NR 7.70000 131.000 spur-merge 485 485 __________O___ -1 7.70000 131.000 0 4 39
1985004N04131 1985 1 WP MM NOT_NAMED 1985-01-05 15:00:00 NR 7.90591 131.137 spur-merge 496 496 __________P___ -1 7.90591 131.137 0 5 34
1985004N04131 1985 1 WP MM NOT_NAMED 1985-01-05 18:00:00 NR 8.14744 131.298 spur-merge 520 520 __________P___ -1 8.14744 131.298 0 6 34
1985004N04131 1985 1 WP MM NOT_NAMED 1985-01-05 21:00:00 NR 8.41525 131.484 spur-merge 545 545 __________P___ -1 8.41525 131.484 0 7 36
1985004N04131 1985 1 WP MM NOT_NAMED 1985-01-06 00:00:00 NR 8.70000 131.700 spur-merge 572 572 __________O___ -1 8.70000 131.700 0 7 36
1985004N04131 1985 1 WP MM NOT_NAMED 1985-01-06 03:00:00 NR 8.99763 131.914 spur-merge 601 601 __________P___ -1 8.99356 131.946 0 8 37
1985004N04131 1985 1 WP MM NOT_NAMED 1985-01-06 06:00:00 NR 9.30718 132.160 spur-merge 641 641 __________P___ -1 9.29273 132.217 0 8 41
1985004N04131 1985 1 WP MM NOT_NAMED 1985-01-06 09:00:00 NR 9.61315 132.451 spur-merge 683 683 __________P___ -1 9.59553 132.504 0 9 47
1985004N04131 1985 1 WP MM NOT_NAMED 1985-01-06 12:00:00 NR 9.90000 132.800 spur-merge 724 724 __________O___ -1 9.90000 132.800 0 9 59
1985004N04131 1985 1 WP MM NOT_NAMED 1985-01-06 15:00:00 NR 10.0943 133.262 spur-merge 782 782 ______________ -1 0 10 69
1985004N04131 1985 1 WP MM NOT_NAMED 1985-01-06 18:00:00 NR 10.2758 133.773 spur-merge 840 840 ______________ -1 0 11 68
1985004N04131 1985 1 WP MM NOT_NAMED 1985-01-06 21:00:00 NR 10.4943 134.272 spur-merge 898 ______________ -1 0 11 66

Digital Typhoon Data and Search

About IBTrACS Database

This database is a web-friendly format of International Best Track Archive for Climate Stewardship (IBTrACS), a global best track data archive curated by NOAA dating back to 1842.

Updated: 2021-11-26